sensor_id;sensor_type;location;lat;lon;timestamp;noise_LAeq;noise_LA_min;noise_LA_max;noise_LA01;noise_LA95
74260;Laerm;62630;55.874;37.516;2023-02-11T00:02:11;53.84;44.96;66.04;;
74260;Laerm;62630;55.874;37.516;2023-02-11T00:04:37;53.86;46.33;66.87;;
74260;Laerm;62630;55.874;37.516;2023-02-11T00:07:02;54.25;45.99;68.65;;
74260;Laerm;62630;55.874;37.516;2023-02-11T00:09:31;53.74;45.21;66.17;;
74260;Laerm;62630;55.874;37.516;2023-02-11T00:11:56;48.78;44.88;54.74;;
74260;Laerm;62630;55.874;37.516;2023-02-11T00:14:22;57.93;45.48;75.29;;
74260;Laerm;62630;55.874;37.516;2023-02-11T00:16:50;53.72;46.31;67.99;;
74260;Laerm;62630;55.874;37.516;2023-02-11T00:19:16;56.19;47.14;72.37;;
74260;Laerm;62630;55.874;37.516;2023-02-11T00:21:41;58.79;48.18;84.36;;
74260;Laerm;62630;55.874;37.516;2023-02-11T00:24:07;54.27;46.22;65.74;;
74260;Laerm;62630;55.874;37.516;2023-02-11T00:26:34;55.04;45.85;68.51;;
74260;Laerm;62630;55.874;37.516;2023-02-11T00:29:03;57.87;46.00;72.95;;
74260;Laerm;62630;55.874;37.516;2023-02-11T00:31:28;52.63;46.07;65.02;;
74260;Laerm;62630;55.874;37.516;2023-02-11T00:33:54;51.33;46.81;60.82;;
74260;Laerm;62630;55.874;37.516;2023-02-11T00:36:23;50.32;45.92;59.03;;
74260;Laerm;62630;55.874;37.516;2023-02-11T00:38:50;50.05;45.66;57.98;;
74260;Laerm;62630;55.874;37.516;2023-02-11T00:41:16;53.07;46.45;65.55;;
74260;Laerm;62630;55.874;37.516;2023-02-11T00:43:42;51.13;45.72;60.62;;
74260;Laerm;62630;55.874;37.516;2023-02-11T00:46:08;53.92;45.41;65.76;;
74260;Laerm;62630;55.874;37.516;2023-02-11T00:48:34;53.66;45.52;64.36;;
74260;Laerm;62630;55.874;37.516;2023-02-11T00:51:00;50.00;46.00;57.47;;
74260;Laerm;62630;55.874;37.516;2023-02-11T00:53:26;55.12;46.99;65.72;;
74260;Laerm;62630;55.874;37.516;2023-02-11T00:55:52;48.97;45.49;54.45;;
74260;Laerm;62630;55.874;37.516;2023-02-11T00:58:17;50.17;45.36;60.21;;
74260;Laerm;62630;55.874;37.516;2023-02-11T01:00:43;54.87;45.63;70.84;;
74260;Laerm;62630;55.874;37.516;2023-02-11T01:03:09;56.35;46.71;69.51;;
74260;Laerm;62630;55.874;37.516;2023-02-11T01:05:34;57.66;46.50;76.47;;
74260;Laerm;62630;55.874;37.516;2023-02-11T01:08:00;60.84;46.43;79.33;;
74260;Laerm;62630;55.874;37.516;2023-02-11T01:10:25;48.77;45.04;60.20;;
74260;Laerm;62630;55.874;37.516;2023-02-11T01:12:51;52.22;46.06;64.61;;
74260;Laerm;62630;55.874;37.516;2023-02-11T01:15:17;57.79;46.32;72.68;;
74260;Laerm;62630;55.874;37.516;2023-02-11T01:17:43;56.03;45.57;69.03;;
74260;Laerm;62630;55.874;37.516;2023-02-11T01:20:14;52.78;44.92;66.06;;
74260;Laerm;62630;55.874;37.516;2023-02-11T01:22:40;54.20;46.20;68.64;;
74260;Laerm;62630;55.874;37.516;2023-02-11T01:25:07;50.14;46.22;59.12;;
74260;Laerm;62630;55.874;37.516;2023-02-11T01:27:32;54.06;45.74;66.56;;
74260;Laerm;62630;55.874;37.516;2023-02-11T01:29:58;55.65;45.22;66.08;;
74260;Laerm;62630;55.874;37.516;2023-02-11T01:32:24;55.21;47.06;68.16;;
74260;Laerm;62630;55.874;37.516;2023-02-11T01:34:49;57.56;46.51;70.39;;
74260;Laerm;62630;55.874;37.516;2023-02-11T01:37:15;57.85;46.14;72.64;;
74260;Laerm;62630;55.874;37.516;2023-02-11T01:39:40;53.69;47.27;63.32;;
74260;Laerm;62630;55.874;37.516;2023-02-11T01:42:06;53.80;46.60;66.97;;
74260;Laerm;62630;55.874;37.516;2023-02-11T01:44:37;61.81;48.68;87.06;;
74260;Laerm;62630;55.874;37.516;2023-02-11T01:47:04;57.50;47.93;66.79;;
74260;Laerm;62630;55.874;37.516;2023-02-11T01:49:33;57.27;46.86;69.80;;
74260;Laerm;62630;55.874;37.516;2023-02-11T01:52:04;54.12;46.35;66.78;;
74260;Laerm;62630;55.874;37.516;2023-02-11T01:54:38;53.40;46.10;64.23;;
74260;Laerm;62630;55.874;37.516;2023-02-11T01:57:25;56.71;45.97;75.50;;
74260;Laerm;62630;55.874;37.516;2023-02-11T02:02:42;56.11;46.79;70.37;;
74260;Laerm;62630;55.874;37.516;2023-02-11T02:10:43;57.34;50.08;71.14;;
74260;Laerm;62630;55.874;37.516;2023-02-11T02:13:10;58.28;47.64;75.12;;
74260;Laerm;62630;55.874;37.516;2023-02-11T02:15:37;66.51;47.66;81.96;;
74260;Laerm;62630;55.874;37.516;2023-02-11T02:23:50;58.80;47.11;71.95;;
74260;Laerm;62630;55.874;37.516;2023-02-11T02:26:34;58.67;46.69;69.85;;
74260;Laerm;62630;55.874;37.516;2023-02-11T02:35:03;52.50;47.50;64.15;;
74260;Laerm;62630;55.874;37.516;2023-02-11T02:37:49;57.87;46.90;69.97;;
74260;Laerm;62630;55.874;37.516;2023-02-11T02:40:23;59.81;46.85;70.77;;
74260;Laerm;62630;55.874;37.516;2023-02-11T02:42:50;56.71;46.22;70.84;;
74260;Laerm;62630;55.874;37.516;2023-02-11T02:45:17;58.65;46.92;72.07;;
74260;Laerm;62630;55.874;37.516;2023-02-11T02:47:43;59.04;48.42;69.46;;
74260;Laerm;62630;55.874;37.516;2023-02-11T02:50:09;54.42;46.49;67.30;;
74260;Laerm;62630;55.874;37.516;2023-02-11T03:04:27;60.74;47.21;75.70;;
74260;Laerm;62630;55.874;37.516;2023-02-11T03:07:05;56.50;47.42;68.80;;
74260;Laerm;62630;55.874;37.516;2023-02-11T03:09:39;60.77;47.32;71.74;;
74260;Laerm;62630;55.874;37.516;2023-02-11T03:12:07;57.97;47.95;70.11;;
74260;Laerm;62630;55.874;37.516;2023-02-11T03:14:35;59.53;50.33;70.17;;
74260;Laerm;62630;55.874;37.516;2023-02-11T03:17:02;58.92;49.70;68.43;;
74260;Laerm;62630;55.874;37.516;2023-02-11T03:19:40;60.65;48.50;72.17;;
74260;Laerm;62630;55.874;37.516;2023-02-11T03:22:12;55.77;47.06;65.29;;
74260;Laerm;62630;55.874;37.516;2023-02-11T03:24:41;60.41;47.95;73.47;;
74260;Laerm;62630;55.874;37.516;2023-02-11T03:27:29;58.75;48.52;75.40;;
74260;Laerm;62630;55.874;37.516;2023-02-11T03:30:06;64.10;47.51;79.40;;
74260;Laerm;62630;55.874;37.516;2023-02-11T03:32:39;56.82;47.76;67.85;;
74260;Laerm;62630;55.874;37.516;2023-02-11T03:35:20;58.42;48.67;75.55;;
74260;Laerm;62630;55.874;37.516;2023-02-11T03:37:57;55.35;47.59;64.72;;
74260;Laerm;62630;55.874;37.516;2023-02-11T03:40:27;59.16;47.30;69.85;;
74260;Laerm;62630;55.874;37.516;2023-02-11T03:43:04;61.93;48.27;73.41;;
74260;Laerm;62630;55.874;37.516;2023-02-11T03:45:32;60.98;49.27;72.48;;
74260;Laerm;62630;55.874;37.516;2023-02-11T03:48:06;58.33;49.66;71.41;;
74260;Laerm;62630;55.874;37.516;2023-02-11T03:50:35;59.42;49.38;76.91;;
74260;Laerm;62630;55.874;37.516;2023-02-11T03:53:01;59.49;48.83;73.60;;
74260;Laerm;62630;55.874;37.516;2023-02-11T03:55:28;59.90;48.54;70.11;;
74260;Laerm;62630;55.874;37.516;2023-02-11T03:57:57;61.41;49.16;77.08;;
74260;Laerm;62630;55.874;37.516;2023-02-11T04:00:37;56.54;48.71;68.80;;
74260;Laerm;62630;55.874;37.516;2023-02-11T04:03:04;58.56;48.50;70.43;;
74260;Laerm;62630;55.874;37.516;2023-02-11T04:05:30;64.07;48.99;88.54;;
74260;Laerm;62630;55.874;37.516;2023-02-11T04:07:56;58.77;49.34;69.57;;
74260;Laerm;62630;55.874;37.516;2023-02-11T04:10:21;59.91;51.19;69.50;;
74260;Laerm;62630;55.874;37.516;2023-02-11T04:12:47;61.63;49.78;73.47;;
74260;Laerm;62630;55.874;37.516;2023-02-11T04:15:16;57.73;49.83;67.13;;
74260;Laerm;62630;55.874;37.516;2023-02-11T04:17:41;64.16;49.66;81.52;;
74260;Laerm;62630;55.874;37.516;2023-02-11T04:20:10;60.10;49.48;70.51;;
74260;Laerm;62630;55.874;37.516;2023-02-11T04:22:42;60.06;49.82;70.51;;
74260;Laerm;62630;55.874;37.516;2023-02-11T04:25:11;62.17;52.85;72.09;;
74260;Laerm;62630;55.874;37.516;2023-02-11T04:27:36;61.47;50.33;73.20;;
74260;Laerm;62630;55.874;37.516;2023-02-11T04:30:07;57.46;50.91;66.45;;
74260;Laerm;62630;55.874;37.516;2023-02-11T04:32:36;61.40;51.11;73.76;;
74260;Laerm;62630;55.874;37.516;2023-02-11T04:35:01;60.63;53.27;69.93;;
74260;Laerm;62630;55.874;37.516;2023-02-11T04:37:30;59.46;51.46;69.39;;
74260;Laerm;62630;55.874;37.516;2023-02-11T04:39:56;57.78;50.19;69.15;;
74260;Laerm;62630;55.874;37.516;2023-02-11T04:42:25;64.89;51.39;91.16;;
74260;Laerm;62630;55.874;37.516;2023-02-11T04:44:51;63.51;53.45;86.11;;
74260;Laerm;62630;55.874;37.516;2023-02-11T04:47:17;64.17;54.55;74.72;;
74260;Laerm;62630;55.874;37.516;2023-02-11T04:49:43;63.62;52.53;72.89;;
74260;Laerm;62630;55.874;37.516;2023-02-11T04:52:09;64.55;51.78;73.31;;
74260;Laerm;62630;55.874;37.516;2023-02-11T04:54:35;63.41;54.91;73.53;;
74260;Laerm;62630;55.874;37.516;2023-02-11T04:57:00;61.65;54.04;72.37;;
74260;Laerm;62630;55.874;37.516;2023-02-11T04:59:26;64.04;53.55;73.94;;
74260;Laerm;62630;55.874;37.516;2023-02-11T05:01:51;62.96;52.95;72.31;;
74260;Laerm;62630;55.874;37.516;2023-02-11T05:04:17;62.21;53.68;72.92;;
74260;Laerm;62630;55.874;37.516;2023-02-11T05:06:43;60.56;52.42;70.86;;
74260;Laerm;62630;55.874;37.516;2023-02-11T05:09:10;61.81;51.16;71.73;;
74260;Laerm;62630;55.874;37.516;2023-02-11T05:11:36;57.27;50.46;68.72;;
74260;Laerm;62630;55.874;37.516;2023-02-11T05:14:04;58.31;50.89;71.83;;
74260;Laerm;62630;55.874;37.516;2023-02-11T05:16:30;61.45;52.18;69.57;;
74260;Laerm;62630;55.874;37.516;2023-02-11T05:18:55;59.91;52.32;72.04;;
74260;Laerm;62630;55.874;37.516;2023-02-11T05:21:21;62.39;50.84;75.95;;
74260;Laerm;62630;55.874;37.516;2023-02-11T05:23:47;62.91;52.94;73.47;;
74260;Laerm;62630;55.874;37.516;2023-02-11T05:26:13;60.62;52.77;71.64;;
74260;Laerm;62630;55.874;37.516;2023-02-11T05:28:39;63.45;52.70;73.30;;
74260;Laerm;62630;55.874;37.516;2023-02-11T05:31:05;61.01;52.56;70.16;;
74260;Laerm;62630;55.874;37.516;2023-02-11T05:33:31;61.46;53.00;70.20;;
74260;Laerm;62630;55.874;37.516;2023-02-11T05:36:07;62.77;53.40;72.57;;
74260;Laerm;62630;55.874;37.516;2023-02-11T05:38:34;65.22;54.39;77.69;;
74260;Laerm;62630;55.874;37.516;2023-02-11T05:41:00;63.28;55.86;72.30;;
74260;Laerm;62630;55.874;37.516;2023-02-11T05:43:26;65.57;55.04;89.88;;
74260;Laerm;62630;55.874;37.516;2023-02-11T05:45:51;64.47;54.30;78.05;;
74260;Laerm;62630;55.874;37.516;2023-02-11T05:48:17;64.77;51.47;88.17;;
74260;Laerm;62630;55.874;37.516;2023-02-11T05:50:43;59.82;52.08;69.94;;
74260;Laerm;62630;55.874;37.516;2023-02-11T05:53:08;65.82;51.90;78.14;;
74260;Laerm;62630;55.874;37.516;2023-02-11T05:55:34;64.72;52.56;75.93;;
74260;Laerm;62630;55.874;37.516;2023-02-11T05:58:00;61.62;52.04;69.91;;
74260;Laerm;62630;55.874;37.516;2023-02-11T06:00:25;63.25;55.46;73.15;;
74260;Laerm;62630;55.874;37.516;2023-02-11T06:02:51;69.02;54.67;84.83;;
74260;Laerm;62630;55.874;37.516;2023-02-11T06:05:17;63.22;55.15;71.38;;
74260;Laerm;62630;55.874;37.516;2023-02-11T06:07:42;62.76;56.32;73.64;;
74260;Laerm;62630;55.874;37.516;2023-02-11T06:10:08;66.11;57.70;78.95;;
74260;Laerm;62630;55.874;37.516;2023-02-11T06:12:35;66.35;54.81;79.18;;
74260;Laerm;62630;55.874;37.516;2023-02-11T06:15:01;62.51;53.57;73.30;;
74260;Laerm;62630;55.874;37.516;2023-02-11T06:17:27;64.36;54.12;73.49;;
74260;Laerm;62630;55.874;37.516;2023-02-11T06:19:57;61.24;52.42;78.12;;
74260;Laerm;62630;55.874;37.516;2023-02-11T06:22:22;63.51;53.94;74.19;;
74260;Laerm;62630;55.874;37.516;2023-02-11T06:24:48;67.28;56.31;81.47;;
74260;Laerm;62630;55.874;37.516;2023-02-11T06:27:13;65.29;55.70;74.57;;
74260;Laerm;62630;55.874;37.516;2023-02-11T06:29:39;62.34;53.86;72.26;;
74260;Laerm;62630;55.874;37.516;2023-02-11T06:32:04;62.28;51.62;80.73;;
74260;Laerm;62630;55.874;37.516;2023-02-11T06:34:33;65.86;53.48;78.78;;
74260;Laerm;62630;55.874;37.516;2023-02-11T06:36:59;63.12;52.72;73.11;;
74260;Laerm;62630;55.874;37.516;2023-02-11T06:39:24;62.00;52.75;73.56;;
74260;Laerm;62630;55.874;37.516;2023-02-11T06:41:50;64.53;54.72;78.84;;
74260;Laerm;62630;55.874;37.516;2023-02-11T06:44:16;69.95;55.63;79.53;;
74260;Laerm;62630;55.874;37.516;2023-02-11T06:46:41;63.79;56.42;75.80;;
74260;Laerm;62630;55.874;37.516;2023-02-11T06:49:07;68.51;54.13;78.76;;
74260;Laerm;62630;55.874;37.516;2023-02-11T06:51:32;68.07;54.62;79.19;;
74260;Laerm;62630;55.874;37.516;2023-02-11T06:53:58;66.03;54.49;85.25;;
74260;Laerm;62630;55.874;37.516;2023-02-11T06:56:24;64.08;54.12;73.70;;
74260;Laerm;62630;55.874;37.516;2023-02-11T06:58:54;67.80;54.56;82.82;;
74260;Laerm;62630;55.874;37.516;2023-02-11T07:01:20;64.21;53.50;73.64;;
74260;Laerm;62630;55.874;37.516;2023-02-11T07:03:46;65.31;56.36;73.94;;
74260;Laerm;62630;55.874;37.516;2023-02-11T07:06:14;67.81;55.52;77.61;;
74260;Laerm;62630;55.874;37.516;2023-02-11T07:08:40;66.76;52.97;78.34;;
74260;Laerm;62630;55.874;37.516;2023-02-11T07:11:16;63.13;53.62;83.07;;
74260;Laerm;62630;55.874;37.516;2023-02-11T07:13:42;64.21;54.63;72.48;;
74260;Laerm;62630;55.874;37.516;2023-02-11T07:16:10;64.65;53.11;74.74;;
74260;Laerm;62630;55.874;37.516;2023-02-11T07:18:36;67.36;56.47;78.71;;
74260;Laerm;62630;55.874;37.516;2023-02-11T07:21:23;64.55;55.18;77.76;;
74260;Laerm;62630;55.874;37.516;2023-02-11T07:23:49;62.72;53.46;70.41;;
74260;Laerm;62630;55.874;37.516;2023-02-11T07:26:18;61.45;52.29;71.32;;
74260;Laerm;62630;55.874;37.516;2023-02-11T07:28:44;66.77;52.71;81.78;;
74260;Laerm;62630;55.874;37.516;2023-02-11T07:31:18;64.91;53.79;73.90;;
74260;Laerm;62630;55.874;37.516;2023-02-11T07:33:44;63.90;53.49;73.77;;
74260;Laerm;62630;55.874;37.516;2023-02-11T07:36:11;62.18;51.96;74.69;;
74260;Laerm;62630;55.874;37.516;2023-02-11T07:38:37;65.10;53.91;72.73;;
74260;Laerm;62630;55.874;37.516;2023-02-11T07:41:05;63.70;55.82;77.07;;
74260;Laerm;62630;55.874;37.516;2023-02-11T07:43:32;63.76;55.62;77.57;;
74260;Laerm;62630;55.874;37.516;2023-02-11T07:45:58;64.71;54.99;73.71;;
74260;Laerm;62630;55.874;37.516;2023-02-11T07:48:27;62.91;54.91;73.57;;
74260;Laerm;62630;55.874;37.516;2023-02-11T07:50:52;66.25;55.52;80.19;;
74260;Laerm;62630;55.874;37.516;2023-02-11T07:53:18;63.11;53.94;75.21;;
74260;Laerm;62630;55.874;37.516;2023-02-11T07:55:43;63.68;55.09;70.83;;
74260;Laerm;62630;55.874;37.516;2023-02-11T07:58:09;64.98;53.61;85.20;;
74260;Laerm;62630;55.874;37.516;2023-02-11T08:00:34;64.90;54.10;75.68;;
74260;Laerm;62630;55.874;37.516;2023-02-11T08:03:00;68.30;55.50;77.71;;
74260;Laerm;62630;55.874;37.516;2023-02-11T08:05:25;62.61;54.97;72.07;;
74260;Laerm;62630;55.874;37.516;2023-02-11T08:07:52;65.02;53.84;76.07;;
74260;Laerm;62630;55.874;37.516;2023-02-11T08:10:19;63.62;52.83;74.57;;
74260;Laerm;62630;55.874;37.516;2023-02-11T08:12:44;62.69;52.50;81.57;;
74260;Laerm;62630;55.874;37.516;2023-02-11T08:15:10;66.13;57.55;77.07;;
74260;Laerm;62630;55.874;37.516;2023-02-11T08:17:36;68.35;58.35;78.85;;
74260;Laerm;62630;55.874;37.516;2023-02-11T08:20:03;65.00;56.74;77.60;;
74260;Laerm;62630;55.874;37.516;2023-02-11T08:22:33;63.62;55.51;72.92;;
74260;Laerm;62630;55.874;37.516;2023-02-11T08:24:59;65.73;54.76;80.90;;
74260;Laerm;62630;55.874;37.516;2023-02-11T08:27:24;62.85;52.83;72.76;;
74260;Laerm;62630;55.874;37.516;2023-02-11T08:29:52;63.79;55.92;72.54;;
74260;Laerm;62630;55.874;37.516;2023-02-11T08:32:17;66.33;54.86;88.80;;
74260;Laerm;62630;55.874;37.516;2023-02-11T08:34:44;70.27;59.31;89.77;;
74260;Laerm;62630;55.874;37.516;2023-02-11T08:37:10;66.59;56.37;81.16;;
74260;Laerm;62630;55.874;37.516;2023-02-11T08:39:35;65.41;58.64;75.16;;
74260;Laerm;62630;55.874;37.516;2023-02-11T08:42:01;66.90;57.37;77.17;;
74260;Laerm;62630;55.874;37.516;2023-02-11T08:44:26;66.49;55.28;85.68;;
74260;Laerm;62630;55.874;37.516;2023-02-11T08:46:52;66.23;55.72;74.30;;
74260;Laerm;62630;55.874;37.516;2023-02-11T08:49:18;63.07;53.69;70.68;;
74260;Laerm;62630;55.874;37.516;2023-02-11T08:51:45;64.80;57.04;72.63;;
74260;Laerm;62630;55.874;37.516;2023-02-11T08:54:11;65.36;56.36;79.37;;
74260;Laerm;62630;55.874;37.516;2023-02-11T08:56:38;63.39;56.02;71.14;;
74260;Laerm;62630;55.874;37.516;2023-02-11T08:59:04;67.81;55.78;82.62;;
74260;Laerm;62630;55.874;37.516;2023-02-11T09:01:30;65.25;56.21;76.06;;
74260;Laerm;62630;55.874;37.516;2023-02-11T09:03:57;67.06;54.59;78.67;;
74260;Laerm;62630;55.874;37.516;2023-02-11T09:06:23;64.08;53.89;73.32;;
74260;Laerm;62630;55.874;37.516;2023-02-11T09:08:51;65.93;53.67;80.44;;
74260;Laerm;62630;55.874;37.516;2023-02-11T09:11:20;63.55;54.49;76.63;;
74260;Laerm;62630;55.874;37.516;2023-02-11T09:13:46;62.55;54.44;70.84;;
74260;Laerm;62630;55.874;37.516;2023-02-11T09:16:17;64.76;57.70;75.47;;
74260;Laerm;62630;55.874;37.516;2023-02-11T09:18:44;67.04;56.10;81.15;;
74260;Laerm;62630;55.874;37.516;2023-02-11T09:21:10;64.63;55.01;76.70;;
74260;Laerm;62630;55.874;37.516;2023-02-11T09:23:36;64.43;56.59;73.18;;
74260;Laerm;62630;55.874;37.516;2023-02-11T09:26:06;65.24;54.65;75.05;;
74260;Laerm;62630;55.874;37.516;2023-02-11T09:28:32;65.56;54.46;78.61;;
74260;Laerm;62630;55.874;37.516;2023-02-11T09:30:57;63.25;53.29;74.16;;
74260;Laerm;62630;55.874;37.516;2023-02-11T09:33:23;63.31;53.89;72.59;;
74260;Laerm;62630;55.874;37.516;2023-02-11T09:35:49;63.60;53.73;71.17;;
74260;Laerm;62630;55.874;37.516;2023-02-11T09:38:14;64.27;54.63;71.23;;
74260;Laerm;62630;55.874;37.516;2023-02-11T09:40:44;64.08;55.90;71.99;;
74260;Laerm;62630;55.874;37.516;2023-02-11T09:43:16;63.84;55.98;74.29;;
74260;Laerm;62630;55.874;37.516;2023-02-11T09:45:43;65.04;55.53;72.29;;
74260;Laerm;62630;55.874;37.516;2023-02-11T09:48:14;64.67;55.47;71.71;;
74260;Laerm;62630;55.874;37.516;2023-02-11T09:50:45;63.21;54.82;70.78;;
74260;Laerm;62630;55.874;37.516;2023-02-11T09:53:26;64.35;53.15;77.58;;
74260;Laerm;62630;55.874;37.516;2023-02-11T09:55:54;64.82;55.16;72.87;;
74260;Laerm;62630;55.874;37.516;2023-02-11T09:58:29;63.79;56.14;70.59;;
74260;Laerm;62630;55.874;37.516;2023-02-11T10:01:19;64.04;53.08;73.65;;
74260;Laerm;62630;55.874;37.516;2023-02-11T10:06:56;64.50;56.65;74.05;;
74260;Laerm;62630;55.874;37.516;2023-02-11T10:18:03;65.75;57.11;74.85;;
74260;Laerm;62630;55.874;37.516;2023-02-11T10:23:20;63.49;53.31;74.84;;
74260;Laerm;62630;55.874;37.516;2023-02-11T10:25:51;66.35;58.98;81.27;;
74260;Laerm;62630;55.874;37.516;2023-02-11T10:28:35;62.89;55.47;74.49;;
74260;Laerm;62630;55.874;37.516;2023-02-11T10:31:10;66.03;54.75;78.12;;
74260;Laerm;62630;55.874;37.516;2023-02-11T10:36:22;63.67;54.63;74.02;;
74260;Laerm;62630;55.874;37.516;2023-02-11T10:38:50;65.00;56.65;73.01;;
74260;Laerm;62630;55.874;37.516;2023-02-11T10:41:20;64.79;56.27;72.18;;
74260;Laerm;62630;55.874;37.516;2023-02-11T10:43:47;63.86;55.71;71.50;;
74260;Laerm;62630;55.874;37.516;2023-02-11T10:46:26;64.69;55.41;71.72;;
74260;Laerm;62630;55.874;37.516;2023-02-11T10:48:56;66.89;56.87;80.94;;
74260;Laerm;62630;55.874;37.516;2023-02-11T10:51:24;63.09;54.80;73.19;;
74260;Laerm;62630;55.874;37.516;2023-02-11T10:54:16;65.17;53.67;82.69;;
74260;Laerm;62630;55.874;37.516;2023-02-11T10:56:46;63.83;53.49;76.34;;
74260;Laerm;62630;55.874;37.516;2023-02-11T10:59:29;67.49;57.19;80.85;;
74260;Laerm;62630;55.874;37.516;2023-02-11T11:02:00;64.19;55.17;75.43;;
74260;Laerm;62630;55.874;37.516;2023-02-11T11:07:22;66.46;57.66;76.02;;
74260;Laerm;62630;55.874;37.516;2023-02-11T11:10:01;62.26;53.98;70.64;;
74260;Laerm;62630;55.874;37.516;2023-02-11T11:15:20;63.40;53.90;74.69;;
74260;Laerm;62630;55.874;37.516;2023-02-11T11:17:48;67.12;54.78;81.05;;
74260;Laerm;62630;55.874;37.516;2023-02-11T11:20:26;64.59;55.81;73.40;;
74260;Laerm;62630;55.874;37.516;2023-02-11T11:25:42;66.86;57.31;77.70;;
74260;Laerm;62630;55.874;37.516;2023-02-11T11:28:19;65.84;54.81;74.29;;
74260;Laerm;62630;55.874;37.516;2023-02-11T11:30:46;64.40;57.40;74.46;;
74260;Laerm;62630;55.874;37.516;2023-02-11T11:33:19;64.29;56.21;72.57;;
74260;Laerm;62630;55.874;37.516;2023-02-11T11:35:56;65.63;57.03;84.26;;
74260;Laerm;62630;55.874;37.516;2023-02-11T11:38:26;64.96;57.68;73.05;;
74260;Laerm;62630;55.874;37.516;2023-02-11T11:41:32;66.03;53.92;79.93;;
74260;Laerm;62630;55.874;37.516;2023-02-11T11:44:23;64.44;55.02;74.00;;
74260;Laerm;62630;55.874;37.516;2023-02-11T11:47:40;66.28;54.51;81.35;;
74260;Laerm;62630;55.874;37.516;2023-02-11T11:50:15;65.11;55.06;72.45;;
74260;Laerm;62630;55.874;37.516;2023-02-11T11:55:59;63.89;55.16;74.25;;
74260;Laerm;62630;55.874;37.516;2023-02-11T11:58:28;70.33;57.16;85.15;;
74260;Laerm;62630;55.874;37.516;2023-02-11T12:04:02;65.73;54.55;78.66;;
74260;Laerm;62630;55.874;37.516;2023-02-11T12:06:49;64.90;55.64;75.77;;
74260;Laerm;62630;55.874;37.516;2023-02-11T12:09:48;67.65;54.67;82.80;;
74260;Laerm;62630;55.874;37.516;2023-02-11T12:17:42;64.71;57.24;72.38;;
74260;Laerm;62630;55.874;37.516;2023-02-11T12:26:15;65.26;55.29;75.83;;
74260;Laerm;62630;55.874;37.516;2023-02-11T12:40:02;63.37;54.61;73.85;;
74260;Laerm;62630;55.874;37.516;2023-02-11T12:43:19;62.93;54.41;70.32;;
74260;Laerm;62630;55.874;37.516;2023-02-11T12:46:03;64.09;53.75;71.83;;
74260;Laerm;62630;55.874;37.516;2023-02-11T12:54:39;63.36;55.68;71.91;;
74260;Laerm;62630;55.874;37.516;2023-02-11T12:57:27;65.93;57.18;77.60;;
74260;Laerm;62630;55.874;37.516;2023-02-11T13:02:44;63.65;55.30;74.26;;
74260;Laerm;62630;55.874;37.516;2023-02-11T13:05:36;66.31;54.01;82.90;;
74260;Laerm;62630;55.874;37.516;2023-02-11T13:08:32;63.96;53.41;78.23;;
74260;Laerm;62630;55.874;37.516;2023-02-11T13:11:34;62.81;55.07;71.51;;
74260;Laerm;62630;55.874;37.516;2023-02-11T13:14:23;69.81;56.16;85.03;;
74260;Laerm;62630;55.874;37.516;2023-02-11T13:16:52;62.96;54.44;71.83;;
74260;Laerm;62630;55.874;37.516;2023-02-11T13:19:39;66.78;55.88;78.53;;
74260;Laerm;62630;55.874;37.516;2023-02-11T13:22:25;64.85;54.60;76.18;;
74260;Laerm;62630;55.874;37.516;2023-02-11T13:31:03;64.87;54.75;82.06;;
74260;Laerm;62630;55.874;37.516;2023-02-11T13:33:58;63.19;53.25;73.92;;
74260;Laerm;62630;55.874;37.516;2023-02-11T13:36:26;62.29;53.36;71.41;;
74260;Laerm;62630;55.874;37.516;2023-02-11T13:38:56;67.31;54.30;86.53;;
74260;Laerm;62630;55.874;37.516;2023-02-11T13:41:26;66.68;56.62;79.79;;
74260;Laerm;62630;55.874;37.516;2023-02-11T13:44:20;64.73;54.58;75.14;;
74260;Laerm;62630;55.874;37.516;2023-02-11T13:47:01;64.93;54.82;76.38;;
74260;Laerm;62630;55.874;37.516;2023-02-11T13:49:33;63.20;53.89;70.94;;
74260;Laerm;62630;55.874;37.516;2023-02-11T13:52:03;64.51;57.02;75.09;;
74260;Laerm;62630;55.874;37.516;2023-02-11T13:54:35;62.82;54.41;71.78;;
74260;Laerm;62630;55.874;37.516;2023-02-11T13:59:51;62.05;53.06;72.94;;
74260;Laerm;62630;55.874;37.516;2023-02-11T14:02:35;67.86;54.29;88.97;;
74260;Laerm;62630;55.874;37.516;2023-02-11T14:05:26;63.72;57.25;73.15;;
74260;Laerm;62630;55.874;37.516;2023-02-11T14:11:00;64.90;53.43;78.66;;
74260;Laerm;62630;55.874;37.516;2023-02-11T14:13:32;64.22;57.19;73.91;;
74260;Laerm;62630;55.874;37.516;2023-02-11T14:16:08;67.27;54.65;77.51;;
74260;Laerm;62630;55.874;37.516;2023-02-11T14:21:35;63.66;55.20;70.45;;
74260;Laerm;62630;55.874;37.516;2023-02-11T14:29:50;63.15;56.72;69.27;;
74260;Laerm;62630;55.874;37.516;2023-02-11T14:32:43;66.18;54.02;86.01;;
74260;Laerm;62630;55.874;37.516;2023-02-11T14:41:34;64.97;54.14;79.06;;
74260;Laerm;62630;55.874;37.516;2023-02-11T14:44:21;62.37;52.69;73.07;;
74260;Laerm;62630;55.874;37.516;2023-02-11T14:46:50;62.27;51.70;73.51;;
74260;Laerm;62630;55.874;37.516;2023-02-11T14:49:31;62.98;54.47;72.70;;
74260;Laerm;62630;55.874;37.516;2023-02-11T14:57:33;61.05;54.79;71.08;;
74260;Laerm;62630;55.874;37.516;2023-02-11T15:00:12;65.78;55.69;79.92;;
74260;Laerm;62630;55.874;37.516;2023-02-11T15:02:38;63.88;56.78;71.70;;
74260;Laerm;62630;55.874;37.516;2023-02-11T15:08:00;62.30;54.46;72.83;;
74260;Laerm;62630;55.874;37.516;2023-02-11T15:10:46;63.01;54.54;77.30;;
74260;Laerm;62630;55.874;37.516;2023-02-11T15:13:18;64.21;54.96;79.67;;
74260;Laerm;62630;55.874;37.516;2023-02-11T15:15:44;65.31;54.66;85.69;;
74260;Laerm;62630;55.874;37.516;2023-02-11T15:18:18;66.52;54.72;81.04;;
74260;Laerm;62630;55.874;37.516;2023-02-11T15:20:47;65.91;54.92;76.97;;
74260;Laerm;62630;55.874;37.516;2023-02-11T15:23:24;60.27;54.49;67.34;;
74260;Laerm;62630;55.874;37.516;2023-02-11T15:25:50;62.40;53.46;70.40;;
74260;Laerm;62630;55.874;37.516;2023-02-11T15:28:28;61.09;53.28;82.73;;
74260;Laerm;62630;55.874;37.516;2023-02-11T15:31:01;63.51;53.89;77.59;;
74260;Laerm;62630;55.874;37.516;2023-02-11T15:33:27;60.01;53.86;70.77;;
74260;Laerm;62630;55.874;37.516;2023-02-11T15:35:55;65.10;52.27;79.97;;
74260;Laerm;62630;55.874;37.516;2023-02-11T15:38:28;60.71;52.50;86.93;;
74260;Laerm;62630;55.874;37.516;2023-02-11T15:41:02;60.43;52.82;70.67;;
74260;Laerm;62630;55.874;37.516;2023-02-11T15:43:46;58.97;51.31;66.83;;
74260;Laerm;62630;55.874;37.516;2023-02-11T15:46:16;64.54;53.93;79.54;;
74260;Laerm;62630;55.874;37.516;2023-02-11T15:48:47;62.42;52.07;76.20;;
74260;Laerm;62630;55.874;37.516;2023-02-11T15:53:48;59.10;51.54;66.70;;
74260;Laerm;62630;55.874;37.516;2023-02-11T15:56:26;58.57;51.89;65.91;;
74260;Laerm;62630;55.874;37.516;2023-02-11T15:58:59;64.02;50.31;75.83;;
74260;Laerm;62630;55.874;37.516;2023-02-11T16:01:34;65.83;51.83;89.96;;
74260;Laerm;62630;55.874;37.516;2023-02-11T16:04:01;69.60;58.34;82.25;;